createdAt,value
2018-12-01T00:00:22.304Z,7.61
2018-12-01T00:01:22.431Z,7.64
2018-12-01T00:02:22.268Z,7.62
2018-12-01T00:03:22.513Z,7.63
2018-12-01T00:04:22.455Z,7.63
2018-12-01T00:05:23.110Z,7.64
2018-12-01T00:06:22.514Z,7.63
2018-12-01T00:07:22.369Z,7.6
2018-12-01T00:08:22.464Z,7.62
2018-12-01T00:09:22.282Z,7.59
2018-12-01T00:10:22.496Z,7.59
2018-12-01T00:11:22.327Z,7.6
2018-12-01T00:12:22.406Z,7.59
2018-12-01T00:13:22.275Z,7.59
2018-12-01T00:14:22.258Z,7.59
2018-12-01T00:15:22.328Z,7.58
2018-12-01T00:16:22.277Z,7.58
2018-12-01T00:17:22.239Z,7.58
2018-12-01T00:18:22.274Z,7.58
2018-12-01T00:19:22.253Z,7.58
2018-12-01T00:20:22.332Z,7.55
2018-12-01T00:21:22.282Z,7.58
2018-12-01T00:22:22.511Z,7.58
2018-12-01T00:23:22.278Z,7.57
2018-12-01T00:24:22.219Z,7.55
2018-12-01T00:25:22.292Z,7.56
2018-12-01T00:26:22.282Z,7.54
2018-12-01T00:27:22.293Z,7.56
2018-12-01T00:28:22.231Z,7.57
2018-12-01T00:29:22.312Z,7.56
2018-12-01T00:30:22.281Z,7.55
2018-12-01T00:31:22.320Z,7.54
2018-12-01T00:32:22.277Z,7.56
2018-12-01T00:33:22.284Z,7.5
2018-12-01T00:34:22.291Z,7.53
2018-12-01T00:35:22.261Z,7.51
2018-12-01T00:36:22.572Z,7.51
2018-12-01T00:37:22.303Z,7.52
2018-12-01T00:38:22.455Z,7.51
2018-12-01T00:39:22.323Z,7.51
2018-12-01T00:40:22.402Z,7.51
2018-12-01T00:41:22.267Z,7.51
2018-12-01T00:42:22.208Z,7.47
2018-12-01T00:43:22.361Z,7.5
2018-12-01T00:44:22.320Z,7.49
2018-12-01T00:45:22.571Z,7.47
2018-12-01T00:46:22.382Z,7.47
2018-12-01T00:47:22.472Z,7.46
2018-12-01T00:48:22.952Z,7.46
2018-12-01T00:49:22.219Z,7.46
2018-12-01T00:50:22.352Z,7.46
2018-12-01T00:51:22.305Z,7.46
2018-12-01T00:52:22.423Z,7.44
2018-12-01T00:53:22.198Z,7.45
2018-12-01T00:54:22.250Z,7.44
2018-12-01T00:55:22.471Z,7.44
2018-12-01T00:56:22.601Z,7.44
2018-12-01T00:57:22.365Z,7.45
2018-12-01T00:58:22.434Z,7.42
2018-12-01T00:59:22.314Z,7.42
2018-12-01T01:00:22.259Z,7.44
2018-12-01T01:01:22.188Z,7.44
2018-12-01T01:02:22.337Z,7.43
2018-12-01T01:03:22.320Z,7.46
2018-12-01T01:04:22.201Z,7.46
2018-12-01T01:05:22.328Z,7.45
2018-12-01T01:06:22.255Z,7.46
2018-12-01T01:07:22.301Z,7.44
2018-12-01T01:08:22.214Z,7.45
2018-12-01T01:09:22.286Z,7.45
2018-12-01T01:10:22.569Z,7.45
2018-12-01T01:11:22.514Z,7.44
2018-12-01T01:12:22.188Z,7.44
2018-12-01T01:13:22.495Z,7.45
2018-12-01T01:14:22.356Z,7.44
2018-12-01T01:15:22.272Z,7.45
2018-12-01T01:16:22.679Z,7.44
2018-12-01T01:17:22.328Z,7.42
2018-12-01T01:18:22.316Z,7.44
2018-12-01T01:19:22.403Z,7.4
2018-12-01T01:20:22.770Z,7.41
2018-12-01T01:21:22.272Z,7.43
2018-12-01T01:22:22.573Z,7.43
2018-12-01T01:23:25.303Z,7.39
2018-12-01T01:24:22.618Z,7.39
2018-12-01T01:25:22.665Z,7.39
2018-12-01T01:26:22.321Z,7.38
2018-12-01T01:27:22.566Z,7.38
2018-12-01T01:28:22.382Z,7.36
2018-12-01T01:29:22.225Z,7.37
2018-12-01T01:30:22.319Z,7.35
2018-12-01T01:31:22.408Z,7.37
2018-12-01T01:32:22.240Z,7.35
2018-12-01T01:33:22.505Z,7.34
2018-12-01T01:34:22.236Z,7.34
2018-12-01T01:35:22.433Z,7.32
2018-12-01T01:36:22.238Z,7.33
2018-12-01T01:37:22.242Z,7.33
2018-12-01T01:38:22.321Z,7.31
2018-12-01T01:39:22.247Z,7.28
2018-12-01T01:40:22.268Z,7.3
2018-12-01T01:41:22.415Z,7.28
2018-12-01T01:42:22.144Z,7.28
2018-12-01T01:43:22.214Z,7.28
2018-12-01T01:44:22.568Z,7.29
2018-12-01T01:45:22.252Z,7.28
2018-12-01T01:46:22.219Z,7.29
2018-12-01T01:47:22.279Z,7.28
2018-12-01T01:48:22.502Z,7.28
2018-12-01T01:49:22.342Z,7.28
2018-12-01T01:50:22.153Z,7.27
2018-12-01T01:51:22.152Z,7.26
2018-12-01T01:52:22.205Z,7.27
2018-12-01T01:53:22.144Z,7.25
2018-12-01T01:54:22.175Z,7.22
2018-12-01T01:55:22.184Z,7.21
2018-12-01T01:56:22.144Z,7.2
2018-12-01T01:57:22.178Z,7.19
2018-12-01T01:58:22.186Z,7.19
2018-12-01T01:59:22.254Z,7.16
2018-12-01T02:00:22.266Z,7.15
2018-12-01T02:01:22.279Z,7.15
2018-12-01T02:02:22.164Z,7.15
2018-12-01T02:03:22.158Z,7.15
2018-12-01T02:04:22.218Z,7.15
2018-12-01T02:05:22.145Z,7.14
2018-12-01T02:06:22.194Z,7.14
2018-12-01T02:07:22.207Z,7.14
2018-12-01T02:08:22.218Z,7.14
2018-12-01T02:09:22.191Z,7.14
2018-12-01T02:10:22.616Z,7.13
2018-12-01T02:11:22.165Z,7.13
2018-12-01T02:12:22.150Z,7.13
2018-12-01T02:13:22.413Z,7.12
2018-12-01T02:14:22.169Z,7.12
2018-12-01T02:15:22.317Z,7.12
2018-12-01T02:16:22.361Z,7.12
2018-12-01T02:17:22.498Z,7.09
2018-12-01T02:18:22.185Z,7.1
2018-12-01T02:19:22.358Z,7.08
2018-12-01T02:20:22.178Z,7.08
2018-12-01T02:21:22.269Z,7.1
2018-12-01T02:22:22.163Z,7.08
2018-12-01T02:23:22.240Z,7.08
2018-12-01T02:24:22.124Z,7.08
2018-12-01T02:25:22.233Z,7.09
2018-12-01T02:26:22.377Z,7.08
2018-12-01T02:27:22.174Z,7.07
2018-12-01T02:28:22.155Z,7.08
2018-12-01T02:29:22.455Z,7.06
2018-12-01T02:30:22.640Z,7.07
2018-12-01T02:31:22.120Z,7.07
2018-12-01T02:32:22.170Z,7.07
2018-12-01T02:33:22.170Z,7.05
2018-12-01T02:34:22.361Z,7.04
2018-12-01T02:35:22.231Z,7.03
2018-12-01T02:36:22.316Z,7.03
2018-12-01T02:37:22.510Z,7.01
2018-12-01T02:38:22.414Z,7
2018-12-01T02:39:22.324Z,6.99
2018-12-01T02:40:22.257Z,6.98
2018-12-01T02:41:22.264Z,6.95
2018-12-01T02:42:22.205Z,6.95
2018-12-01T02:43:22.381Z,6.94
2018-12-01T02:44:22.403Z,6.93
2018-12-01T02:45:22.099Z,6.93
2018-12-01T02:46:22.130Z,6.92
2018-12-01T02:47:22.045Z,6.92
2018-12-01T02:48:22.153Z,6.89
2018-12-01T02:49:22.100Z,6.91
2018-12-01T02:50:22.124Z,6.89
2018-12-01T02:51:22.202Z,6.88
2018-12-01T02:52:22.339Z,6.87
2018-12-01T02:53:22.504Z,6.87
2018-12-01T02:54:22.223Z,6.86
2018-12-01T02:55:22.385Z,6.85
2018-12-01T02:56:22.341Z,6.83
2018-12-01T02:57:22.231Z,6.83
2018-12-01T02:58:22.206Z,6.85
2018-12-01T02:59:22.395Z,6.83
2018-12-01T03:00:22.438Z,6.83
2018-12-01T03:01:22.418Z,6.82
2018-12-01T03:02:22.207Z,6.83
2018-12-01T03:03:22.345Z,6.79
2018-12-01T03:04:22.248Z,6.78
2018-12-01T03:05:22.243Z,6.8
2018-12-01T03:06:22.181Z,6.78
2018-12-01T03:07:22.206Z,6.8
2018-12-01T03:08:22.390Z,6.78
2018-12-01T03:09:22.069Z,6.78
2018-12-01T03:10:22.200Z,6.8
2018-12-01T03:11:22.317Z,6.79
2018-12-01T03:12:22.206Z,6.8
2018-12-01T03:13:22.181Z,6.8
2018-12-01T03:14:22.167Z,6.81
2018-12-01T03:15:22.108Z,6.8
2018-12-01T03:16:22.197Z,6.8
2018-12-01T03:17:22.117Z,6.78
2018-12-01T03:18:22.239Z,6.8
2018-12-01T03:19:22.028Z,6.8
2018-12-01T03:20:22.367Z,6.8
2018-12-01T03:21:22.408Z,6.79
2018-12-01T03:22:22.217Z,6.8
2018-12-01T03:23:22.215Z,6.8
2018-12-01T03:24:22.069Z,6.8
2018-12-01T03:25:22.182Z,6.8
2018-12-01T03:26:22.032Z,6.8
2018-12-01T03:27:22.262Z,6.8
2018-12-01T03:28:22.232Z,6.8
2018-12-01T03:29:22.429Z,6.78
2018-12-01T03:30:22.159Z,6.77
2018-12-01T03:31:22.019Z,6.78
2018-12-01T03:32:22.039Z,6.76
2018-12-01T03:33:22.094Z,6.75
2018-12-01T03:34:22.022Z,6.74
2018-12-01T03:35:22.050Z,6.75
2018-12-01T03:36:22.585Z,6.73
2018-12-01T03:37:22.015Z,6.75
2018-12-01T03:38:22.265Z,6.71
2018-12-01T03:39:22.034Z,6.74
2018-12-01T03:40:22.277Z,6.73
2018-12-01T03:41:22.003Z,6.75
2018-12-01T03:42:22.154Z,6.74
2018-12-01T03:43:22.026Z,6.74
2018-12-01T03:44:22.009Z,6.75
2018-12-01T03:45:22.145Z,6.75
2018-12-01T03:46:22.006Z,6.77
2018-12-01T03:47:22.047Z,6.75
2018-12-01T03:48:22.015Z,6.76
2018-12-01T03:49:22.105Z,6.76
2018-12-01T03:50:22.028Z,6.78
2018-12-01T03:51:22.100Z,6.77
2018-12-01T03:52:22.182Z,6.8
2018-12-01T03:53:22.184Z,6.8
2018-12-01T03:54:22.001Z,6.8
2018-12-01T03:55:22.148Z,6.76
2018-12-01T03:56:21.999Z,6.77
2018-12-01T03:57:22.018Z,6.77
2018-12-01T03:58:22.224Z,6.76
2018-12-01T03:59:22.028Z,6.76
2018-12-01T04:00:22.205Z,6.76
2018-12-01T04:01:22.541Z,6.78
2018-12-01T04:02:22.087Z,6.76
2018-12-01T04:03:22.026Z,6.78
2018-12-01T04:04:21.948Z,6.75
2018-12-01T04:05:22.021Z,6.75
2018-12-01T04:06:21.963Z,6.75
2018-12-01T04:07:22.020Z,6.75
2018-12-01T04:08:22.129Z,6.75
2018-12-01T04:09:22.027Z,6.74
2018-12-01T04:10:21.939Z,6.74
2018-12-01T04:11:22.203Z,6.73
2018-12-01T04:12:22.226Z,6.71
2018-12-01T04:13:23.491Z,6.7
2018-12-01T04:14:22.256Z,6.7
2018-12-01T04:15:22.097Z,6.69
2018-12-01T04:16:21.998Z,6.69
2018-12-01T04:17:22.158Z,6.66
2018-12-01T04:18:22.114Z,6.66
2018-12-01T04:19:21.985Z,6.63
2018-12-01T04:20:21.956Z,6.64
2018-12-01T04:21:22.069Z,6.63
2018-12-01T04:22:21.939Z,6.62
2018-12-01T04:23:22.163Z,6.62
2018-12-01T04:24:21.986Z,6.59
2018-12-01T04:25:21.918Z,6.61
2018-12-01T04:26:22.051Z,6.61
2018-12-01T04:27:22.112Z,6.61
2018-12-01T04:28:22.096Z,6.59
2018-12-01T04:29:22.247Z,6.59
2018-12-01T04:30:22.237Z,6.58
2018-12-01T04:31:22.004Z,6.6
2018-12-01T04:32:22.189Z,6.58
2018-12-01T04:33:22.213Z,6.57
2018-12-01T04:34:21.994Z,6.56
2018-12-01T04:35:21.946Z,6.56
2018-12-01T04:36:21.986Z,6.56
2018-12-01T04:37:22.030Z,6.56
2018-12-01T04:38:22.112Z,6.55
2018-12-01T04:39:21.930Z,6.56
2018-12-01T04:40:22.056Z,6.56
2018-12-01T04:41:22.037Z,6.54
2018-12-01T04:42:22.162Z,6.55
2018-12-01T04:43:21.979Z,6.55
2018-12-01T04:44:22.104Z,6.55
2018-12-01T04:45:22.030Z,6.55
2018-12-01T04:46:22.249Z,6.57
2018-12-01T04:47:21.937Z,6.57
2018-12-01T04:48:22.024Z,6.58
2018-12-01T04:49:21.928Z,6.6
2018-12-01T04:50:21.966Z,6.58
2018-12-01T04:51:22.099Z,6.58
2018-12-01T04:52:22.020Z,6.57
2018-12-01T04:53:21.995Z,6.61
2018-12-01T04:54:21.914Z,6.58
2018-12-01T04:55:22.330Z,6.58
2018-12-01T04:56:21.914Z,6.58
2018-12-01T04:57:22.740Z,6.58
2018-12-01T04:58:21.996Z,6.59
2018-12-01T04:59:22.069Z,6.61
2018-12-01T05:00:22.150Z,6.6
2018-12-01T05:01:22.101Z,6.6
2018-12-01T05:02:21.926Z,6.6
2018-12-01T05:03:21.892Z,6.64
2018-12-01T05:04:21.984Z,6.65
2018-12-01T05:05:22.041Z,6.65
2018-12-01T05:06:21.880Z,6.67
2018-12-01T05:07:21.926Z,6.65
2018-12-01T05:08:21.928Z,6.64
2018-12-01T05:09:21.909Z,6.67
2018-12-01T05:10:21.888Z,6.68
2018-12-01T05:11:21.871Z,6.68
2018-12-01T05:12:21.911Z,6.68
2018-12-01T05:13:21.999Z,6.66
2018-12-01T05:14:21.876Z,6.66
2018-12-01T05:15:22.233Z,6.69
2018-12-01T05:16:22.134Z,6.66
2018-12-01T05:17:21.920Z,6.69
2018-12-01T05:18:21.848Z,6.68
2018-12-01T05:19:21.969Z,6.7
2018-12-01T05:20:21.912Z,6.69
2018-12-01T05:21:21.849Z,6.7
2018-12-01T05:22:21.871Z,6.7
2018-12-01T05:23:21.948Z,6.71
2018-12-01T05:24:21.841Z,6.71
2018-12-01T05:25:21.915Z,6.71
2018-12-01T05:26:21.920Z,6.7
2018-12-01T05:27:22.224Z,6.7
2018-12-01T05:28:21.842Z,6.7
2018-12-01T05:29:21.940Z,6.71
2018-12-01T05:30:21.910Z,6.71
2018-12-01T05:31:21.974Z,6.7
2018-12-01T05:32:21.939Z,6.7
2018-12-01T05:33:22.122Z,6.7
2018-12-01T05:34:21.928Z,6.69
2018-12-01T05:35:21.881Z,6.68
2018-12-01T05:36:21.890Z,6.68
2018-12-01T05:37:22.319Z,6.67
2018-12-01T05:38:22.700Z,6.64
2018-12-01T05:39:22.026Z,6.65
2018-12-01T05:40:21.906Z,6.64
2018-12-01T05:41:22.056Z,6.63
2018-12-01T05:42:22.025Z,6.64
2018-12-01T05:43:21.998Z,6.63
2018-12-01T05:44:21.906Z,6.63
2018-12-01T05:45:21.909Z,6.62
2018-12-01T05:46:21.950Z,6.62
2018-12-01T05:47:21.843Z,6.59
2018-12-01T05:48:22.135Z,6.58
2018-12-01T05:49:22.438Z,6.57
2018-12-01T05:50:21.841Z,6.56
2018-12-01T05:51:21.915Z,6.56
2018-12-01T05:52:22.047Z,6.57
2018-12-01T05:53:21.997Z,6.57
2018-12-01T05:54:21.961Z,6.55
2018-12-01T05:55:21.882Z,6.54
2018-12-01T05:56:21.836Z,6.55
2018-12-01T05:57:21.948Z,6.54
2018-12-01T05:58:21.956Z,6.56
2018-12-01T05:59:21.894Z,6.53
2018-12-01T06:00:22.303Z,6.56
2018-12-01T06:01:21.787Z,6.53
2018-12-01T06:02:21.927Z,6.55
2018-12-01T06:03:22.209Z,6.54
2018-12-01T06:04:21.858Z,6.55
2018-12-01T06:05:21.863Z,6.52
2018-12-01T06:06:21.875Z,6.53
2018-12-01T06:07:21.972Z,6.54
2018-12-01T06:08:21.870Z,6.52
2018-12-01T06:09:21.869Z,6.53
2018-12-01T06:10:22.499Z,6.52
2018-12-01T06:11:21.904Z,6.54
2018-12-01T06:12:22.104Z,6.54
2018-12-01T06:13:22.011Z,6.57
2018-12-01T06:14:21.964Z,6.57
2018-12-01T06:15:21.971Z,6.57
2018-12-01T06:16:22.221Z,6.57
2018-12-01T06:17:21.834Z,6.55
2018-12-01T06:18:21.965Z,6.56
2018-12-01T06:19:21.935Z,6.57
2018-12-01T06:20:21.862Z,6.57
2018-12-01T06:21:21.830Z,6.57
2018-12-01T06:22:21.835Z,6.57
2018-12-01T06:23:21.930Z,6.56
2018-12-01T06:24:21.934Z,6.57
2018-12-01T06:25:21.920Z,6.57
2018-12-01T06:26:21.967Z,6.58
2018-12-01T06:27:21.859Z,6.57
2018-12-01T06:28:21.989Z,6.56
2018-12-01T06:29:22.443Z,6.57
2018-12-01T06:30:21.784Z,6.57
2018-12-01T06:31:22.150Z,6.57
2018-12-01T06:32:21.872Z,6.56
2018-12-01T06:33:21.829Z,6.57
2018-12-01T06:34:21.952Z,6.56
2018-12-01T06:35:22.050Z,6.56
2018-12-01T06:36:21.798Z,6.56
2018-12-01T06:37:21.964Z,6.55
2018-12-01T06:38:21.865Z,6.53
2018-12-01T06:39:21.938Z,6.53
2018-12-01T06:40:21.995Z,6.52
2018-12-01T06:41:21.781Z,6.54
2018-12-01T06:42:21.812Z,6.52
2018-12-01T06:43:21.780Z,6.52
2018-12-01T06:44:21.772Z,6.52
2018-12-01T06:45:21.809Z,6.53
2018-12-01T06:46:21.768Z,6.5
2018-12-01T06:47:21.756Z,6.49
2018-12-01T06:48:21.796Z,6.53
2018-12-01T06:49:21.911Z,6.51
2018-12-01T06:50:22.034Z,6.51
2018-12-01T06:51:21.752Z,6.52
2018-12-01T06:52:21.788Z,6.51
2018-12-01T06:53:21.884Z,6.52
2018-12-01T06:54:21.790Z,6.54
2018-12-01T06:55:21.814Z,6.53
2018-12-01T06:56:21.751Z,6.55
2018-12-01T06:57:21.810Z,6.52
2018-12-01T06:58:21.770Z,6.53
2018-12-01T06:59:21.700Z,6.52
2018-12-01T07:00:21.799Z,6.52
2018-12-01T07:01:21.751Z,6.54
2018-12-01T07:02:21.796Z,6.52
2018-12-01T07:03:21.901Z,6.53
2018-12-01T07:04:21.858Z,6.54
2018-12-01T07:05:22.380Z,6.57
2018-12-01T07:06:21.788Z,6.54
2018-12-01T07:07:21.750Z,6.52
2018-12-01T07:08:21.764Z,6.52
2018-12-01T07:09:21.782Z,6.52
2018-12-01T07:10:21.856Z,6.52
2018-12-01T07:11:21.862Z,6.52
2018-12-01T07:12:21.733Z,6.51
2018-12-01T07:13:21.786Z,6.51
2018-12-01T07:14:21.710Z,6.54
2018-12-01T07:15:22.017Z,6.52
2018-12-01T07:16:22.000Z,6.54
2018-12-01T07:17:21.715Z,6.51
2018-12-01T07:18:21.858Z,6.52
2018-12-01T07:19:21.998Z,6.53
2018-12-01T07:20:21.957Z,6.52
2018-12-01T07:21:21.775Z,6.52
2018-12-01T07:22:21.817Z,6.52
2018-12-01T07:23:21.721Z,6.51
2018-12-01T07:24:21.845Z,6.54
2018-12-01T07:25:21.805Z,6.5
2018-12-01T07:26:21.768Z,6.54
2018-12-01T07:27:21.805Z,6.52
2018-12-01T07:28:21.830Z,6.52
2018-12-01T07:29:21.782Z,6.51
2018-12-01T07:30:21.726Z,6.5
2018-12-01T07:31:21.768Z,6.5
2018-12-01T07:32:21.706Z,6.5
2018-12-01T07:33:21.989Z,6.54
2018-12-01T07:34:21.750Z,6.5
2018-12-01T07:35:21.908Z,6.52
2018-12-01T07:36:21.716Z,6.51
2018-12-01T07:37:21.846Z,6.51
2018-12-01T07:38:21.879Z,6.52
2018-12-01T07:39:21.811Z,6.51
2018-12-01T07:40:21.729Z,6.52
2018-12-01T07:41:21.824Z,6.52
2018-12-01T07:42:21.720Z,6.51
2018-12-01T07:43:21.974Z,6.51
2018-12-01T07:44:21.792Z,6.54
2018-12-01T07:45:21.832Z,6.52
2018-12-01T07:46:21.839Z,6.56
2018-12-01T07:47:21.759Z,6.55
2018-12-01T07:48:21.746Z,6.56
2018-12-01T07:49:21.807Z,6.57
2018-12-01T07:50:22.139Z,6.58
2018-12-01T07:51:21.735Z,6.58
2018-12-01T07:52:22.204Z,6.58
2018-12-01T07:53:21.724Z,6.6
2018-12-01T07:54:21.670Z,6.61
2018-12-01T07:55:21.983Z,6.62
2018-12-01T07:56:21.670Z,6.62
2018-12-01T07:57:21.669Z,6.62
2018-12-01T07:58:21.653Z,6.64
2018-12-01T07:59:21.692Z,6.66
2018-12-01T08:00:21.936Z,6.65
2018-12-01T08:01:21.684Z,6.67
2018-12-01T08:02:21.896Z,6.69
2018-12-01T08:03:21.959Z,6.68
2018-12-01T08:04:21.980Z,6.68
2018-12-01T08:05:21.663Z,6.7
2018-12-01T08:06:21.706Z,6.73
2018-12-01T08:07:21.864Z,6.74
2018-12-01T08:08:21.755Z,6.74
2018-12-01T08:09:21.773Z,6.75
2018-12-01T08:10:21.853Z,6.76
2018-12-01T08:11:21.730Z,6.76
2018-12-01T08:12:21.700Z,6.78
2018-12-01T08:13:21.988Z,6.78
2018-12-01T08:14:21.682Z,6.83
2018-12-01T08:15:21.940Z,6.85
2018-12-01T08:16:21.976Z,6.83
2018-12-01T08:17:21.698Z,6.87
2018-12-01T08:18:21.709Z,6.9
2018-12-01T08:19:21.692Z,6.9
2018-12-01T08:20:21.705Z,6.89
2018-12-01T08:21:21.677Z,6.94
2018-12-01T08:22:21.678Z,6.94
2018-12-01T08:23:21.634Z,6.95
2018-12-01T08:24:21.728Z,6.95
2018-12-01T08:25:21.722Z,6.99
2018-12-01T08:26:21.640Z,7
2018-12-01T08:27:21.666Z,7.02
2018-12-01T08:28:21.788Z,7.02
2018-12-01T08:29:21.725Z,7.05
2018-12-01T08:30:21.697Z,7.06
2018-12-01T08:31:21.741Z,7.07
2018-12-01T08:32:21.612Z,7.08
2018-12-01T08:33:21.750Z,7.11
2018-12-01T08:34:21.686Z,7.12
2018-12-01T08:35:21.753Z,7.13
2018-12-01T08:36:21.694Z,7.16
2018-12-01T08:37:21.625Z,7.14
2018-12-01T08:38:21.641Z,7.17
2018-12-01T08:39:21.703Z,7.19
2018-12-01T08:40:21.915Z,7.19
2018-12-01T08:41:21.675Z,7.19
2018-12-01T08:42:21.633Z,7.23
2018-12-01T08:43:23.262Z,7.23
2018-12-01T08:44:21.880Z,7.21
2018-12-01T08:45:21.851Z,7.24
2018-12-01T08:46:21.761Z,7.26
2018-12-01T08:47:21.890Z,7.26
2018-12-01T08:48:21.667Z,7.26
2018-12-01T08:49:21.932Z,7.29
2018-12-01T08:50:21.924Z,7.3
2018-12-01T08:51:21.662Z,7.3
2018-12-01T08:52:21.728Z,7.3
2018-12-01T08:53:22.148Z,7.31
2018-12-01T08:54:21.611Z,7.34
2018-12-01T08:55:21.855Z,7.35
2018-12-01T08:56:22.888Z,7.34
2018-12-01T08:57:21.742Z,7.37
2018-12-01T08:58:22.084Z,7.4
2018-12-01T08:59:21.653Z,7.39
2018-12-01T09:00:21.689Z,7.42
2018-12-01T09:01:22.428Z,7.43
2018-12-01T09:02:21.761Z,7.45
2018-12-01T09:03:21.790Z,7.45
2018-12-01T09:04:21.806Z,7.47
2018-12-01T09:05:21.617Z,7.49
2018-12-01T09:06:21.883Z,7.5
2018-12-01T09:07:21.890Z,7.53
2018-12-01T09:08:21.788Z,7.55
2018-12-01T09:09:21.765Z,7.57
2018-12-01T09:10:21.685Z,7.57
2018-12-01T09:11:22.538Z,7.6
2018-12-01T09:12:21.646Z,7.61
2018-12-01T09:13:21.713Z,7.62
2018-12-01T09:14:21.996Z,7.62
2018-12-01T09:15:22.033Z,7.67
2018-12-01T09:16:21.747Z,7.68
2018-12-01T09:17:22.445Z,7.69
2018-12-01T09:18:21.844Z,7.74
2018-12-01T09:19:21.717Z,7.75
2018-12-01T09:20:21.934Z,7.75
2018-12-01T09:21:21.564Z,7.76
2018-12-01T09:22:21.693Z,7.76
2018-12-01T09:23:21.840Z,7.78
2018-12-01T09:24:21.620Z,7.81
2018-12-01T09:25:22.433Z,7.82
2018-12-01T09:26:21.808Z,7.83
2018-12-01T09:27:23.040Z,7.82
2018-12-01T09:28:21.758Z,7.83
2018-12-01T09:29:21.775Z,7.85
2018-12-01T09:30:21.787Z,7.87
2018-12-01T09:31:21.782Z,7.89
2018-12-01T09:32:21.594Z,7.88
2018-12-01T09:33:21.867Z,7.91
2018-12-01T09:34:21.657Z,7.91
2018-12-01T09:35:21.825Z,7.95
2018-12-01T09:36:21.966Z,7.97
2018-12-01T09:37:21.966Z,7.97
2018-12-01T09:38:21.590Z,8
2018-12-01T09:39:22.057Z,8.02
2018-12-01T09:40:21.724Z,8.02
2018-12-01T09:41:21.897Z,8.03
2018-12-01T09:42:25.158Z,8.05
2018-12-01T09:43:21.658Z,8.04
2018-12-01T09:44:21.645Z,8.07
2018-12-01T09:45:21.758Z,8.1
2018-12-01T09:46:21.733Z,8.11
2018-12-01T09:47:21.580Z,8.12
2018-12-01T09:48:21.853Z,8.15
2018-12-01T09:49:21.714Z,8.15
2018-12-01T09:50:21.775Z,8.14
2018-12-01T09:51:21.763Z,8.18
2018-12-01T09:52:21.700Z,8.19
2018-12-01T09:53:21.513Z,8.22
2018-12-01T09:54:24.034Z,8.22
2018-12-01T09:55:22.069Z,8.25
2018-12-01T09:56:21.618Z,8.26
2018-12-01T09:57:21.541Z,8.28
2018-12-01T09:58:21.545Z,8.27
2018-12-01T09:59:21.813Z,8.29
2018-12-01T10:00:21.657Z,8.31
2018-12-01T10:01:21.657Z,8.31
2018-12-01T10:02:21.539Z,8.31
2018-12-01T10:03:21.694Z,8.32
2018-12-01T10:04:21.796Z,8.33
2018-12-01T10:05:21.533Z,8.33
2018-12-01T10:06:21.630Z,8.37
2018-12-01T10:07:21.707Z,8.37
2018-12-01T10:08:21.571Z,8.41
2018-12-01T10:09:21.569Z,8.44
2018-12-01T10:10:21.546Z,8.45
2018-12-01T10:11:21.532Z,8.48
2018-12-01T10:12:21.471Z,8.46
2018-12-01T10:13:21.533Z,8.49
2018-12-01T10:14:21.550Z,8.49
2018-12-01T10:15:21.513Z,8.49
2018-12-01T10:16:21.564Z,8.48
2018-12-01T10:17:21.626Z,8.49
2018-12-01T10:18:21.535Z,8.49
2018-12-01T10:19:21.743Z,8.49
2018-12-01T10:20:21.838Z,8.49
2018-12-01T10:21:21.603Z,8.5
2018-12-01T10:22:21.668Z,8.51
2018-12-01T10:23:21.727Z,8.51
2018-12-01T10:24:21.709Z,8.51
2018-12-01T10:25:21.790Z,8.53
2018-12-01T10:26:21.547Z,8.53
2018-12-01T10:27:21.532Z,8.52
2018-12-01T10:28:21.820Z,8.54
2018-12-01T10:29:21.534Z,8.54
2018-12-01T10:30:21.517Z,8.55
2018-12-01T10:31:21.480Z,8.52
2018-12-01T10:32:21.751Z,8.54
2018-12-01T10:33:21.585Z,8.54
2018-12-01T10:34:21.667Z,8.52
2018-12-01T10:35:21.633Z,8.54
2018-12-01T10:36:22.310Z,8.54
2018-12-01T10:37:21.589Z,8.55
2018-12-01T10:38:21.612Z,8.56
2018-12-01T10:39:21.756Z,8.58
2018-12-01T10:40:21.614Z,8.58
2018-12-01T10:41:21.709Z,8.65
2018-12-01T10:42:21.486Z,8.64
2018-12-01T10:43:21.597Z,8.69
2018-12-01T10:44:21.480Z,8.74
2018-12-01T10:45:21.589Z,8.77
2018-12-01T10:46:21.806Z,8.82
2018-12-01T10:47:21.623Z,8.88
2018-12-01T10:48:21.812Z,8.91
2018-12-01T10:49:21.581Z,8.95
2018-12-01T10:50:21.659Z,9
2018-12-01T10:51:21.478Z,9
2018-12-01T10:52:21.815Z,9.03
2018-12-01T10:53:21.526Z,9.06
2018-12-01T10:54:21.538Z,9.06
2018-12-01T10:55:22.045Z,9.05
2018-12-01T10:56:21.585Z,9.05
2018-12-01T10:57:21.946Z,9.05
2018-12-01T10:58:21.702Z,9.04
2018-12-01T10:59:21.590Z,9.06
2018-12-01T11:00:21.539Z,9.03
2018-12-01T11:01:21.857Z,9.04
2018-12-01T11:02:21.692Z,9.02
2018-12-01T11:03:21.642Z,9.02
2018-12-01T11:04:21.467Z,9.02
2018-12-01T11:05:21.576Z,9.02
2018-12-01T11:06:21.660Z,9.02
2018-12-01T11:07:21.574Z,9.01
2018-12-01T11:08:21.666Z,9.01
2018-12-01T11:09:21.656Z,9.03
2018-12-01T11:10:21.528Z,9.01
2018-12-01T11:11:21.645Z,9.02
2018-12-01T11:12:21.593Z,9.02
2018-12-01T11:13:21.503Z,9.02
2018-12-01T11:14:21.623Z,9.03
2018-12-01T11:15:21.538Z,9.03
2018-12-01T11:16:21.617Z,9.03
2018-12-01T11:17:21.492Z,9.05
2018-12-01T11:18:21.597Z,9.07
2018-12-01T11:19:21.825Z,9.08
2018-12-01T11:20:21.439Z,9.06
2018-12-01T11:21:21.428Z,9.1
2018-12-01T11:22:21.784Z,9.1
2018-12-01T11:23:21.463Z,9.1
2018-12-01T11:24:21.449Z,9.15
2018-12-01T11:25:22.257Z,9.16
2018-12-01T11:26:21.685Z,9.2
2018-12-01T11:27:21.662Z,9.22
2018-12-01T11:28:21.680Z,9.26
2018-12-01T11:29:21.525Z,9.3
2018-12-01T11:30:21.460Z,9.36
2018-12-01T11:31:22.581Z,9.41
2018-12-01T11:32:22.928Z,9.41
2018-12-01T11:33:21.505Z,9.41
2018-12-01T11:34:21.537Z,9.42
2018-12-01T11:35:21.781Z,9.44
2018-12-01T11:36:21.415Z,9.41
2018-12-01T11:37:21.439Z,9.45
2018-12-01T11:38:21.459Z,9.45
2018-12-01T11:39:21.458Z,9.47
2018-12-01T11:40:21.510Z,9.49
2018-12-01T11:41:21.397Z,9.51
2018-12-01T11:42:21.421Z,9.57
2018-12-01T11:43:21.465Z,9.62
2018-12-01T11:44:21.459Z,9.7
2018-12-01T11:45:21.379Z,9.72
2018-12-01T11:46:21.708Z,9.82
2018-12-01T11:47:21.405Z,9.85
2018-12-01T11:48:21.394Z,9.85
2018-12-01T11:49:21.388Z,9.89
2018-12-01T11:50:21.359Z,9.91
2018-12-01T11:51:21.505Z,9.91
2018-12-01T11:52:21.593Z,9.9
2018-12-01T11:53:21.519Z,9.93
2018-12-01T11:54:21.541Z,9.92
2018-12-01T11:55:24.344Z,9.9
2018-12-01T11:56:21.713Z,9.87
2018-12-01T11:57:21.493Z,9.86
2018-12-01T11:58:21.535Z,9.82
2018-12-01T11:59:21.592Z,9.78
2018-12-01T12:00:21.364Z,9.79
2018-12-01T12:01:21.406Z,9.75
2018-12-01T12:02:21.449Z,9.72
2018-12-01T12:03:21.443Z,9.74
2018-12-01T12:04:21.364Z,9.74
2018-12-01T12:05:21.545Z,9.74
2018-12-01T12:06:21.637Z,9.73
2018-12-01T12:07:21.537Z,9.73
2018-12-01T12:08:21.395Z,9.71
2018-12-01T12:09:21.478Z,9.69
2018-12-01T12:10:21.523Z,9.7
2018-12-01T12:11:21.590Z,9.7
2018-12-01T12:12:21.485Z,9.7
2018-12-01T12:13:21.589Z,9.71
2018-12-01T12:14:22.012Z,9.74
2018-12-01T12:15:21.449Z,9.73
2018-12-01T12:16:21.507Z,9.75
2018-12-01T12:17:21.502Z,9.73
2018-12-01T12:18:21.434Z,9.75
2018-12-01T12:19:21.539Z,9.74
2018-12-01T12:20:21.711Z,9.75
2018-12-01T12:21:21.369Z,9.73
2018-12-01T12:22:21.572Z,9.75
2018-12-01T12:23:21.652Z,9.76
2018-12-01T12:24:21.375Z,9.76
2018-12-01T12:25:21.960Z,9.76
2018-12-01T12:26:21.386Z,9.75
2018-12-01T12:27:21.394Z,9.76
2018-12-01T12:28:21.329Z,9.75
2018-12-01T12:29:21.554Z,9.74
2018-12-01T12:30:26.527Z,9.75
2018-12-01T12:31:21.458Z,9.75
2018-12-01T12:32:21.503Z,9.76
2018-12-01T12:33:21.522Z,9.76
2018-12-01T12:34:21.787Z,9.76
2018-12-01T12:35:21.378Z,9.78
2018-12-01T12:36:21.400Z,9.81
2018-12-01T12:37:21.464Z,9.8
2018-12-01T12:38:21.334Z,9.83
2018-12-01T12:39:21.374Z,9.85
2018-12-01T12:40:21.735Z,9.89
2018-12-01T12:41:21.436Z,9.88
2018-12-01T12:42:21.413Z,9.89
2018-12-01T12:43:21.404Z,9.88
2018-12-01T12:44:21.649Z,9.86
2018-12-01T12:45:21.427Z,9.89
2018-12-01T12:46:22.539Z,9.89
2018-12-01T12:47:21.414Z,9.93
2018-12-01T12:48:21.491Z,9.91
2018-12-01T12:49:21.345Z,9.98
2018-12-01T12:50:21.430Z,10.01
2018-12-01T12:51:21.326Z,10.03
2018-12-01T12:52:21.631Z,10.06
2018-12-01T12:53:21.521Z,10.04
2018-12-01T12:54:21.277Z,10.07
2018-12-01T12:55:22.122Z,10.08
2018-12-01T12:56:21.386Z,10.12
2018-12-01T12:57:21.435Z,10.12
2018-12-01T12:58:21.442Z,10.13
2018-12-01T12:59:21.351Z,10.12
2018-12-01T13:00:22.159Z,10.12
2018-12-01T13:01:21.416Z,10.12
2018-12-01T13:02:21.454Z,10.13
2018-12-01T13:03:21.430Z,10.13
2018-12-01T13:04:21.321Z,10.13
2018-12-01T13:05:21.519Z,10.13
2018-12-01T13:06:21.396Z,10.14
2018-12-01T13:07:21.292Z,10.14
2018-12-01T13:08:21.268Z,10.15
2018-12-01T13:09:21.395Z,10.14
2018-12-01T13:10:21.429Z,10.13
2018-12-01T13:11:21.537Z,10.12
2018-12-01T13:12:21.294Z,10.12
2018-12-01T13:13:21.260Z,10.12
2018-12-01T13:14:21.290Z,10.13
2018-12-01T13:15:21.317Z,10.11
2018-12-01T13:16:21.299Z,10.11
2018-12-01T13:17:21.387Z,10.07
2018-12-01T13:18:21.436Z,10.06
2018-12-01T13:19:23.576Z,10.05
2018-12-01T13:20:21.404Z,10.01